Time;durP1;ratioP1;P1;durP2;ratioP2;P2;SDS_P1;SDS_P2;PMS_P1;PMS_P2;Temp;Humidity;BMP_temperature;BMP_pressure;BME280_temperature;BME280_humidity;BME280_pressure;Samples;Min_cycle;Max_cycle;Signal;HPM_P1;HPM_P2
2022/12/07 00:01:07;;;;;;;;;;;6.50;99.90;;;;;;5035455;28;19928;-77
2022/12/07 00:03:34;;;;;;;;;;;6.50;99.90;;;;;;5053260;28;19940;-77
2022/12/07 00:06:01;;;;;;;;;;;6.50;99.90;;;;;;5037868;28;19937;-78
2022/12/07 00:08:29;;;;;;;;;;;6.50;99.90;;;;;;5035926;28;19947;-77
2022/12/07 00:10:56;;;;;;;;;;;6.50;99.90;;;;;;5028440;28;19929;-76
2022/12/07 00:13:24;;;;;;;;;;;6.50;99.90;;;;;;5038873;28;19940;-77
2022/12/07 00:15:51;;;;;;;;;;;6.50;99.90;;;;;;5020850;28;19989;-77
2022/12/07 00:18:17;;;;;;;;;;;6.50;99.90;;;;;;5014695;28;19979;-77
2022/12/07 00:20:44;;;;;;;;;;;6.50;99.90;;;;;;5037182;28;19955;-77
2022/12/07 00:23:11;;;;;;;;;;;6.50;99.90;;;;;;5051027;28;19940;-77
2022/12/07 00:25:38;;;;;;;;;;;6.60;99.90;;;;;;5051527;28;19928;-78
2022/12/07 00:28:06;;;;;;;;;;;6.50;99.90;;;;;;5050750;28;19929;-77
2022/12/07 00:30:35;;;;;;;;;;;6.50;99.90;;;;;;5053098;28;19925;-78
2022/12/07 00:33:02;;;;;;;;;;;6.50;99.90;;;;;;5030398;28;19929;-77
2022/12/07 00:35:29;;;;;;;;;;;6.50;99.90;;;;;;5032992;28;20284;-77
2022/12/07 00:37:56;;;;;;;;;;;6.50;99.90;;;;;;5053691;28;19925;-78
2022/12/07 00:40:23;;;;;;;;;;;6.50;99.90;;;;;;5051955;28;19932;-78
2022/12/07 00:42:50;;;;;;;;;;;6.50;99.90;;;;;;5049331;28;19928;-78
2022/12/07 00:45:17;;;;;;;;;;;6.50;99.90;;;;;;5036990;28;19929;-77
2022/12/07 00:47:45;;;;;;;;;;;6.50;99.90;;;;;;5045553;28;19946;-77
2022/12/07 00:50:12;;;;;;;;;;;6.50;99.90;;;;;;5032756;28;20396;-76
2022/12/07 00:52:39;;;;;;;;;;;6.50;99.90;;;;;;5033141;28;19925;-77
2022/12/07 00:55:06;;;;;;;;;;;7.70;99.90;;;;;;5051549;28;20630;-77
2022/12/07 00:57:33;;;;;;;;;;;6.50;99.90;;;;;;5036054;28;19983;-76
2022/12/07 01:00:00;;;;;;;;;;;6.50;99.90;;;;;;5034473;28;19929;-76
2022/12/07 01:02:27;;;;;;;;;;;6.50;99.90;;;;;;5050659;28;20277;-77
2022/12/07 01:04:55;;;;;;;;;;;6.50;99.90;;;;;;5051674;28;19974;-77
2022/12/07 01:07:22;;;;;;;;;;;6.50;99.90;;;;;;5013713;28;19933;-75
2022/12/07 01:09:49;;;;;;;;;;;6.50;99.90;;;;;;5014575;28;20420;-77
2022/12/07 01:12:16;;;;;;;;;;;6.50;99.90;;;;;;5020702;28;19979;-77
2022/12/07 01:14:43;;;;;;;;;;;6.50;99.90;;;;;;5033476;28;20063;-77
2022/12/07 01:17:10;;;;;;;;;;;6.50;99.90;;;;;;5050569;28;20010;-76
2022/12/07 01:19:36;;;;;;;;;;;6.50;99.90;;;;;;5050224;28;19929;-76
2022/12/07 01:22:05;;;;;;;;;;;6.50;99.90;;;;;;5033006;28;19928;-77
2022/12/07 01:24:32;;;;;;;;;;;6.50;99.90;;;;;;5042680;28;20040;-77
2022/12/07 01:26:59;;;;;;;;;;;6.50;99.90;;;;;;5050213;28;20400;-76
2022/12/07 01:29:25;;;;;;;;;;;6.50;99.90;;;;;;5050355;28;19939;-77
2022/12/07 01:31:52;;;;;;;;;;;6.50;99.90;;;;;;5050595;28;19925;-77
2022/12/07 01:34:19;;;;;;;;;;;6.50;99.90;;;;;;5033835;28;19979;-76
2022/12/07 01:36:46;;;;;;;;;;;6.40;99.90;;;;;;5031164;28;20003;-77
2022/12/07 01:39:14;;;;;;;;;;;6.40;99.90;;;;;;5030351;28;20031;-77
2022/12/07 01:41:44;;;;;;;;;;;6.40;99.90;;;;;;5031262;28;19929;-77
2022/12/07 01:44:13;;;;;;;;;;;6.40;99.90;;;;;;5050317;28;19928;-77
2022/12/07 01:46:41;;;;;;;;;;;6.30;99.90;;;;;;5042528;28;19979;-76
2022/12/07 01:49:09;;;;;;;;;;;6.30;99.90;;;;;;5052105;28;19976;-76
2022/12/07 01:51:38;;;;;;;;;;;6.30;99.90;;;;;;5033037;28;19933;-78
2022/12/07 01:54:05;;;;;;;;;;;6.30;99.90;;;;;;5051497;28;19978;-76
2022/12/07 01:56:33;;;;;;;;;;;6.40;99.90;;;;;;5013628;28;19933;-76
2022/12/07 01:59:01;;;;;;;;;;;6.30;99.90;;;;;;5043472;28;19925;-76
2022/12/07 02:01:28;;;;;;;;;;;6.30;99.90;;;;;;5031561;28;20399;-76
2022/12/07 02:03:55;;;;;;;;;;;6.20;99.90;;;;;;5048886;28;20356;-77
2022/12/07 02:06:24;;;;;;;;;;;6.20;99.90;;;;;;5029778;28;19978;-77
2022/12/07 02:08:51;;;;;;;;;;;6.10;99.90;;;;;;5048319;28;19936;-77
2022/12/07 02:11:18;;;;;;;;;;;6.00;99.90;;;;;;5046715;28;20347;-77
2022/12/07 02:13:50;;;;;;;;;;;6.00;99.90;;;;;;5047853;28;19929;-77
2022/12/07 02:16:23;;;;;;;;;;;6.00;99.90;;;;;;5049378;28;19933;-77
2022/12/07 02:18:56;;;;;;;;;;;5.90;99.90;;;;;;5026019;28;20503;-76
2022/12/07 02:21:29;;;;;;;;;;;5.80;99.90;;;;;;5034864;28;19987;-80
2022/12/07 02:24:29;;;;;;;;;;;5.80;99.90;;;;;;5034775;28;19956;-77
2022/12/07 02:27:23;;;;;;;;;;;5.80;99.90;;;;;;4964876;28;19930;-77
2022/12/07 02:29:56;;;;;;;;;;;5.80;99.90;;;;;;4982254;28;19930;-78
2022/12/07 02:32:25;;;;;;;;;;;5.80;99.90;;;;;;5010451;28;19956;-78
2022/12/07 02:34:56;;;;;;;;;;;5.80;99.90;;;;;;5049374;28;19998;-78
2022/12/07 02:37:28;;;;;;;;;;;5.90;99.90;;;;;;5042078;28;20238;-78
2022/12/07 02:39:56;;;;;;;;;;;5.90;99.90;;;;;;5033781;28;19960;-78
2022/12/07 02:42:25;;;;;;;;;;;5.90;99.90;;;;;;5047199;28;19948;-76
2022/12/07 02:44:53;;;;;;;;;;;5.90;99.90;;;;;;5027180;28;20686;-76
2022/12/07 02:47:22;;;;;;;;;;;5.90;99.90;;;;;;5043723;28;19928;-76
2022/12/07 02:49:50;;;;;;;;;;;5.90;99.90;;;;;;5045608;28;20027;-76
2022/12/07 02:52:17;;;;;;;;;;;5.90;99.90;;;;;;5046079;28;19936;-76
2022/12/07 02:54:44;;;;;;;;;;;5.90;99.90;;;;;;5045903;28;19940;-77
2022/12/07 02:57:18;;;;;;;;;;;5.90;99.90;;;;;;5023228;28;19991;-77
2022/12/07 02:59:47;;;;;;;;;;;;;;;;;;5034605;28;20426;-77
2022/12/07 03:02:19;;;;;;;;;;;5.90;99.90;;;;;;5047003;28;19935;-77
2022/12/07 03:04:53;;;;;;;;;;;6.00;99.90;;;;;;5024869;28;19929;-76
2022/12/07 03:07:26;;;;;;;;;;;5.90;99.90;;;;;;5017821;28;20191;-76
2022/12/07 03:09:59;;;;;;;;;;;5.90;99.90;;;;;;5046517;28;20441;-76
2022/12/07 03:12:30;;;;;;;;;;;5.90;99.90;;;;;;5029302;28;19925;-75
2022/12/07 03:15:00;;;;;;;;;;;5.80;99.90;;;;;;5040877;28;19951;-75
2022/12/07 03:17:32;;;;;;;;;;;5.80;99.90;;;;;;5025478;28;19929;-75
2022/12/07 03:20:01;;;;;;;;;;;5.70;99.90;;;;;;5043651;28;20031;-76
2022/12/07 03:22:30;;;;;;;;;;;5.70;99.90;;;;;;5030894;28;20364;-76
2022/12/07 03:24:58;;;;;;;;;;;5.70;99.90;;;;;;5036284;28;19983;-76
2022/12/07 03:27:28;;;;;;;;;;;5.60;99.90;;;;;;5025041;28;19987;-77
2022/12/07 03:29:56;;;;;;;;;;;5.50;99.90;;;;;;5020739;28;20388;-77
2022/12/07 03:32:25;;;;;;;;;;;5.50;99.90;;;;;;5041866;28;19933;-77
2022/12/07 03:34:58;;;;;;;;;;;5.50;99.90;;;;;;5049143;28;19959;-77
2022/12/07 03:37:27;;;;;;;;;;;5.50;99.90;;;;;;5046225;28;19933;-76
2022/12/07 03:39:58;;;;;;;;;;;5.30;99.90;;;;;;5046363;28;19933;-77
2022/12/07 03:42:25;;;;;;;;;;;5.30;99.90;;;;;;5045045;28;20391;-77
2022/12/07 03:44:52;;;;;;;;;;;5.30;99.90;;;;;;5045539;28;19937;-77
2022/12/07 03:47:23;;;;;;;;;;;5.20;99.90;;;;;;5052351;28;20997;-77
2022/12/07 03:49:51;;;;;;;;;;;5.10;99.90;;;;;;5052114;28;20316;-76
2022/12/07 03:52:23;;;;;;;;;;;5.10;99.90;;;;;;5051443;28;19929;-76
2022/12/07 03:54:53;;;;;;;;;;;5.10;99.90;;;;;;5040454;28;19959;-76
2022/12/07 03:57:20;;;;;;;;;;;5.10;99.90;;;;;;5050293;28;19955;-76
2022/12/07 03:59:47;;;;;;;;;;;5.20;99.90;;;;;;5049367;28;19998;-77
2022/12/07 04:02:14;;;;;;;;;;;5.10;99.90;;;;;;5047544;28;19951;-78
2022/12/07 04:04:42;;;;;;;;;;;5.20;99.90;;;;;;5034801;28;19929;-77
2022/12/07 04:07:09;;;;;;;;;;;5.30;99.90;;;;;;5049810;28;19968;-77
2022/12/07 04:09:37;;;;;;;;;;;5.30;99.90;;;;;;5053032;28;19929;-78
2022/12/07 04:12:06;;;;;;;;;;;5.40;99.90;;;;;;5032411;28;19936;-76
2022/12/07 04:14:33;;;;;;;;;;;5.40;99.90;;;;;;5043399;28;20422;-78
2022/12/07 04:17:00;;;;;;;;;;;5.40;99.90;;;;;;5047317;28;20351;-78
2022/12/07 04:19:28;;;;;;;;;;;5.40;99.90;;;;;;5037826;28;19929;-77
2022/12/07 04:21:55;;;;;;;;;;;5.40;99.90;;;;;;5044288;28;20458;-77
2022/12/07 04:24:22;;;;;;;;;;;5.50;99.90;;;;;;5041739;28;19933;-77
2022/12/07 04:26:50;;;;;;;;;;;5.50;99.90;;;;;;5040911;28;20036;-77
2022/12/07 04:29:18;;;;;;;;;;;5.50;99.90;;;;;;5049230;28;20373;-77
2022/12/07 04:31:45;;;;;;;;;;;5.40;99.90;;;;;;5049052;28;20027;-77
2022/12/07 04:34:12;;;;;;;;;;;5.40;99.90;;;;;;5033524;28;19954;-77
2022/12/07 04:36:42;;;;;;;;;;;5.30;99.90;;;;;;5032818;28;19951;-77
2022/12/07 04:39:18;;;;;;;;;;;5.30;99.90;;;;;;5052353;28;19935;-78
2022/12/07 04:41:45;;;;;;;;;;;5.20;99.90;;;;;;5032367;28;19939;-78
2022/12/07 04:44:15;;;;;;;;;;;5.10;99.90;;;;;;5051174;28;19913;-77
2022/12/07 04:46:43;;;;;;;;;;;5.10;99.90;;;;;;5051569;28;19968;-76
2022/12/07 04:49:10;;;;;;;;;;;5.00;99.90;;;;;;5036282;28;19925;-79
2022/12/07 04:51:37;;;;;;;;;;;5.00;99.90;;;;;;5052385;28;19996;-79
2022/12/07 04:54:03;;;;;;;;;;;5.10;99.90;;;;;;5050345;28;19916;-78
2022/12/07 04:56:30;;;;;;;;;;;6.50;99.90;;;;;;5049479;28;19929;-79
2022/12/07 04:58:57;;;;;;;;;;;5.10;99.90;;;;;;5051120;28;20004;-78
2022/12/07 05:01:25;;;;;;;;;;;5.10;99.90;;;;;;5032927;28;19929;-78
2022/12/07 05:03:52;;;;;;;;;;;5.10;99.90;;;;;;5032220;28;20024;-78
2022/12/07 05:06:19;;;;;;;;;;;5.20;99.90;;;;;;5032356;28;19924;-77
2022/12/07 05:08:46;;;;;;;;;;;5.20;99.90;;;;;;5035338;28;19942;-79
2022/12/07 05:11:37;;;;;;;;;;;5.20;99.90;;;;;;5051012;28;19994;-76
2022/12/07 05:14:01;;;;;;;;;;;5.20;99.90;;;;;;5048327;28;19925;-77
2022/12/07 05:16:29;;;;;;;;;;;5.30;99.90;;;;;;5050351;28;19924;-78
2022/12/07 05:18:56;;;;;;;;;;;5.30;99.90;;;;;;5034517;28;19932;-79
2022/12/07 05:21:23;;;;;;;;;;;5.20;99.90;;;;;;5048688;28;19929;-82
2022/12/07 05:23:50;;;;;;;;;;;5.20;99.90;;;;;;5030961;28;20219;-80
2022/12/07 05:26:17;;;;;;;;;;;5.30;99.90;;;;;;5044399;28;19929;-79
2022/12/07 05:28:44;;;;;;;;;;;5.20;99.90;;;;;;5032781;28;19951;-79
2022/12/07 05:31:12;;;;;;;;;;;5.20;99.90;;;;;;5050046;28;20219;-78
2022/12/07 05:33:40;;;;;;;;;;;5.30;99.90;;;;;;5034995;28;19933;-78
2022/12/07 05:36:08;;;;;;;;;;;5.30;99.90;;;;;;5042275;28;19994;-77
2022/12/07 05:38:35;;;;;;;;;;;5.30;99.90;;;;;;5042174;28;19932;-77
2022/12/07 05:41:02;;;;;;;;;;;5.30;99.90;;;;;;5043544;28;19991;-78
2022/12/07 05:43:28;;;;;;;;;;;5.30;99.90;;;;;;5041316;28;19929;-78
2022/12/07 05:45:55;;;;;;;;;;;5.30;99.90;;;;;;5044051;28;20032;-77
2022/12/07 05:48:22;;;;;;;;;;;5.30;99.90;;;;;;5047409;28;19982;-78
2022/12/07 05:50:50;;;;;;;;;;;5.30;99.90;;;;;;5031635;28;20032;-77
2022/12/07 05:53:18;;;;;;;;;;;5.40;99.90;;;;;;5041783;28;19929;-78
2022/12/07 05:55:51;;;;;;;;;;;5.40;99.90;;;;;;5055772;28;19932;-78
2022/12/07 06:01:28;;;;;;;;;;;5.40;99.90;;;;;;5044417;28;19924;-77
2022/12/07 06:03:56;;;;;;;;;;;5.40;99.90;;;;;;5037989;28;19995;-79
2022/12/07 06:06:24;;;;;;;;;;;5.50;99.90;;;;;;5056349;28;19925;-77
2022/12/07 06:08:51;;;;;;;;;;;5.50;99.90;;;;;;5053767;28;19925;-77
2022/12/07 06:14:04;;;;;;;;;;;5.40;99.90;;;;;;5044710;28;19931;-78
2022/12/07 06:16:33;;;;;;;;;;;5.40;99.90;;;;;;5051331;28;19991;-79
2022/12/07 06:19:00;;;;;;;;;;;5.40;99.90;;;;;;5051685;28;19925;-79
2022/12/07 06:21:28;;;;;;;;;;;5.40;99.90;;;;;;5037790;28;20424;-79
2022/12/07 06:23:55;;;;;;;;;;;5.30;99.90;;;;;;5052738;28;20532;-79
2022/12/07 06:26:22;;;;;;;;;;;5.40;99.90;;;;;;5054745;28;19935;-81
2022/12/07 06:28:49;;;;;;;;;;;5.40;99.90;;;;;;5052073;28;19933;-75
2022/12/07 06:31:16;;;;;;;;;;;5.30;99.90;;;;;;5041764;28;19929;-75
2022/12/07 06:33:43;;;;;;;;;;;5.30;99.90;;;;;;5034283;28;19928;-75
2022/12/07 06:36:10;;;;;;;;;;;5.30;99.90;;;;;;5032211;28;19960;-75
2022/12/07 06:38:38;;;;;;;;;;;5.30;99.90;;;;;;5031056;28;19956;-75
2022/12/07 06:41:06;;;;;;;;;;;5.30;99.90;;;;;;5042965;28;19948;-77
2022/12/07 06:43:33;;;;;;;;;;;5.30;99.90;;;;;;5043999;28;19943;-78
2022/12/07 06:46:00;;;;;;;;;;;5.30;99.90;;;;;;5050687;28;20659;-76
2022/12/07 06:48:27;;;;;;;;;;;6.20;99.90;;;;;;5047405;28;19955;-78
2022/12/07 06:50:54;;;;;;;;;;;5.30;99.90;;;;;;5044821;28;19924;-78
2022/12/07 06:53:21;;;;;;;;;;;5.20;99.90;;;;;;5044731;28;19925;-76
2022/12/07 06:55:49;;;;;;;;;;;5.20;99.90;;;;;;5028891;28;19940;-76
2022/12/07 06:58:16;;;;;;;;;;;5.20;99.90;;;;;;5028643;28;20667;-77
2022/12/07 07:00:43;;;;;;;;;;;5.10;99.90;;;;;;5033324;28;19983;-77
2022/12/07 07:03:10;;;;;;;;;;;5.10;99.90;;;;;;5036954;28;20713;-77
2022/12/07 07:05:37;;;;;;;;;;;5.10;99.90;;;;;;5031193;28;20019;-77
2022/12/07 07:08:04;;;;;;;;;;;5.20;99.90;;;;;;5035415;28;19936;-77
2022/12/07 07:10:31;;;;;;;;;;;5.20;99.90;;;;;;5038529;28;19929;-76
2022/12/07 07:12:59;;;;;;;;;;;5.20;99.90;;;;;;5047879;28;19933;-77
2022/12/07 07:15:27;;;;;;;;;;;5.20;99.90;;;;;;5045789;28;19944;-76
2022/12/07 07:17:54;;;;;;;;;;;5.20;99.90;;;;;;5037312;28;19925;-77
2022/12/07 07:20:21;;;;;;;;;;;5.20;99.90;;;;;;5035684;28;19951;-77
2022/12/07 07:22:48;;;;;;;;;;;5.10;99.90;;;;;;5055786;28;19932;-75
2022/12/07 07:25:15;;;;;;;;;;;5.10;99.90;;;;;;5024116;28;19929;-76
2022/12/07 07:27:42;;;;;;;;;;;5.10;99.90;;;;;;5034438;28;19925;-75
2022/12/07 07:30:11;;;;;;;;;;;5.10;99.90;;;;;;5052414;28;22728;-76
2022/12/07 07:32:38;;;;;;;;;;;5.10;99.90;;;;;;5039943;28;19925;-76
2022/12/07 07:35:06;;;;;;;;;;;5.10;99.90;;;;;;5053840;28;19928;-75
2022/12/07 07:37:33;;;;;;;;;;;5.10;99.90;;;;;;5052826;28;19929;-77
2022/12/07 07:40:00;;;;;;;;;;;5.00;99.90;;;;;;5034375;28;20284;-76
2022/12/07 07:42:27;;;;;;;;;;;5.00;99.90;;;;;;5049663;28;19932;-76
2022/12/07 07:44:54;;;;;;;;;;;5.00;99.90;;;;;;5028642;28;19924;-76
2022/12/07 07:47:22;;;;;;;;;;;5.00;99.90;;;;;;5045177;28;19987;-78
2022/12/07 07:49:49;;;;;;;;;;;;;;;;;;5037733;28;20004;-78
2022/12/07 07:52:16;;;;;;;;;;;5.10;99.90;;;;;;5038492;28;19982;-78
2022/12/07 07:54:43;;;;;;;;;;;5.10;99.90;;;;;;5052723;28;19928;-78
2022/12/07 07:57:14;;;;;;;;;;;5.00;99.90;;;;;;5057180;28;20020;-78
2022/12/07 07:59:41;;;;;;;;;;;5.00;99.90;;;;;;5047093;28;20273;-79
2022/12/07 08:02:10;;;;;;;;;;;5.00;99.90;;;;;;5048260;28;19933;-78
2022/12/07 08:04:38;;;;;;;;;;;4.90;99.90;;;;;;5040527;28;19975;-78
2022/12/07 08:07:05;;;;;;;;;;;4.90;99.90;;;;;;5042118;28;19929;-78
2022/12/07 08:09:32;;;;;;;;;;;4.90;99.90;;;;;;5055558;28;19932;-79
2022/12/07 08:12:00;;;;;;;;;;;4.90;99.90;;;;;;5054173;28;19928;-78
2022/12/07 08:14:28;;;;;;;;;;;5.00;99.90;;;;;;5055034;28;19956;-76
2022/12/07 08:16:55;;;;;;;;;;;5.00;99.90;;;;;;5055280;28;19929;-78
2022/12/07 08:19:22;;;;;;;;;;;5.10;99.90;;;;;;5057205;28;19972;-77
2022/12/07 08:21:51;;;;;;;;;;;5.20;99.90;;;;;;5039107;28;19936;-77
2022/12/07 08:24:18;;;;;;;;;;;5.20;99.90;;;;;;5049569;28;20102;-77
2022/12/07 08:26:46;;;;;;;;;;;5.30;99.90;;;;;;5053701;28;19992;-77
2022/12/07 08:29:13;;;;;;;;;;;5.40;99.90;;;;;;5055029;28;19936;-77
2022/12/07 08:31:40;;;;;;;;;;;5.40;99.90;;;;;;5031363;28;20396;-77
2022/12/07 08:34:07;;;;;;;;;;;5.40;99.90;;;;;;5051309;28;19948;-78
2022/12/07 08:36:34;;;;;;;;;;;5.40;99.90;;;;;;5058425;28;19971;-78
2022/12/07 08:39:02;;;;;;;;;;;5.30;99.90;;;;;;5041874;28;19939;-77
2022/12/07 08:41:29;;;;;;;;;;;5.30;99.90;;;;;;5060604;28;19928;-78
2022/12/07 08:43:56;;;;;;;;;;;5.20;99.90;;;;;;5053280;28;19925;-78
2022/12/07 08:46:26;;;;;;;;;;;5.20;99.90;;;;;;5034065;28;19929;-78
2022/12/07 08:48:55;;;;;;;;;;;5.20;99.90;;;;;;5027855;28;19924;-77
2022/12/07 08:51:22;;;;;;;;;;;5.20;99.90;;;;;;5034020;28;19975;-77
2022/12/07 08:53:49;;;;;;;;;;;5.20;99.90;;;;;;5053899;28;19933;-76
2022/12/07 08:56:19;;;;;;;;;;;5.30;99.90;;;;;;5021465;28;19995;-77
2022/12/07 08:58:46;;;;;;;;;;;5.50;99.90;;;;;;5050079;28;19924;-77
2022/12/07 09:01:12;;;;;;;;;;;5.70;99.90;;;;;;5050493;28;19978;-77
2022/12/07 09:03:40;;;;;;;;;;;5.90;99.90;;;;;;5047563;28;19931;-77
2022/12/07 09:06:08;;;;;;;;;;;5.90;99.90;;;;;;5045013;28;19933;-77
2022/12/07 09:08:37;;;;;;;;;;;5.90;99.90;;;;;;5035413;28;19974;-77
2022/12/07 09:11:04;;;;;;;;;;;5.90;99.90;;;;;;5047039;28;19964;-77
2022/12/07 09:13:32;;;;;;;;;;;5.80;99.90;;;;;;5046633;28;19928;-77
2022/12/07 09:15:59;;;;;;;;;;;5.80;99.90;;;;;;5055142;28;20019;-78
2022/12/07 09:18:29;;;;;;;;;;;5.80;99.90;;;;;;5039609;28;19971;-78
2022/12/07 09:20:56;;;;;;;;;;;6.00;99.90;;;;;;5030931;28;19926;-78
2022/12/07 09:23:23;;;;;;;;;;;6.30;99.90;;;;;;5039109;28;19932;-78
2022/12/07 09:25:50;;;;;;;;;;;6.60;99.90;;;;;;5049577;28;19925;-76
2022/12/07 09:28:17;;;;;;;;;;;6.90;99.90;;;;;;5034131;28;19955;-76
2022/12/07 09:30:47;;;;;;;;;;;7.10;99.90;;;;;;5050838;28;19978;-76
2022/12/07 09:33:14;;;;;;;;;;;7.20;99.90;;;;;;5052568;28;19940;-76
2022/12/07 09:35:45;;;;;;;;;;;7.20;99.90;;;;;;5031827;28;20385;-77
2022/12/07 09:38:12;;;;;;;;;;;7.20;99.90;;;;;;5036229;28;20001;-76
2022/12/07 09:40:38;;;;;;;;;;;7.30;99.90;;;;;;5044028;28;20591;-77
2022/12/07 09:43:06;;;;;;;;;;;7.30;99.90;;;;;;5020377;28;19933;-76
2022/12/07 09:45:34;;;;;;;;;;;7.30;99.90;;;;;;5050910;28;19941;-77
2022/12/07 09:48:03;;;;;;;;;;;7.30;99.90;;;;;;5052264;28;19955;-78
2022/12/07 09:50:30;;;;;;;;;;;7.20;99.90;;;;;;5050492;28;20010;-78
2022/12/07 09:53:05;;;;;;;;;;;7.20;99.90;;;;;;5050303;28;19933;-78
2022/12/07 09:55:34;;;;;;;;;;;7.00;99.90;;;;;;5029679;28;19924;-77
2022/12/07 09:58:01;;;;;;;;;;;7.00;99.90;;;;;;5054152;28;19929;-77
2022/12/07 10:00:28;;;;;;;;;;;7.00;99.90;;;;;;5051985;28;19929;-77
2022/12/07 10:02:56;;;;;;;;;;;7.00;99.90;;;;;;5033581;28;20024;-78
2022/12/07 10:05:27;;;;;;;;;;;7.10;99.90;;;;;;5044869;28;19929;-78
2022/12/07 10:07:54;;;;;;;;;;;7.20;99.90;;;;;;5034503;28;19990;-77
2022/12/07 10:10:23;;;;;;;;;;;7.40;99.90;;;;;;5035466;28;19995;-77
2022/12/07 10:12:55;;;;;;;;;;;7.50;99.90;;;;;;5033368;28;19929;-79
2022/12/07 10:15:22;;;;;;;;;;;7.50;99.90;;;;;;5036093;28;19940;-78
2022/12/07 10:17:49;;;;;;;;;;;7.60;99.90;;;;;;5050825;28;19992;-77
2022/12/07 10:20:21;;;;;;;;;;;7.60;99.90;;;;;;5054130;28;19928;-77
2022/12/07 10:23:04;;;;;;;;;;;7.60;99.90;;;;;;5034442;28;20567;-77
2022/12/07 10:25:35;;;;;;;;;;;7.50;99.90;;;;;;5052343;28;20311;-78
2022/12/07 10:28:03;;;;;;;;;;;7.50;99.90;;;;;;5051767;28;19928;-77
2022/12/07 10:30:30;;;;;;;;;;;7.50;99.90;;;;;;5030616;28;19929;-77
2022/12/07 10:32:57;;;;;;;;;;;7.70;99.90;;;;;;5031522;28;19976;-77
2022/12/07 10:35:25;;;;;;;;;;;7.90;99.90;;;;;;5051677;28;20019;-77
2022/12/07 10:37:53;;;;;;;;;;;8.10;99.90;;;;;;5055943;28;20011;-78
2022/12/07 10:40:29;;;;;;;;;;;8.20;99.90;;;;;;5035907;28;19987;-77
2022/12/07 10:43:04;;;;;;;;;;;8.40;99.90;;;;;;5045027;28;19944;-79
2022/12/07 10:45:31;;;;;;;;;;;8.40;99.90;;;;;;5054386;28;19925;-78
2022/12/07 10:48:01;;;;;;;;;;;8.40;99.90;;;;;;5050242;28;19978;-77
2022/12/07 10:50:40;;;;;;;;;;;8.40;99.90;;;;;;5031964;28;20277;-78
2022/12/07 10:53:14;;;;;;;;;;;8.30;99.90;;;;;;5033257;28;20297;-77
2022/12/07 10:55:50;;;;;;;;;;;8.40;99.90;;;;;;5027485;28;19925;-77
2022/12/07 10:58:32;;;;;;;;;;;8.40;99.90;;;;;;5013318;28;19929;-78
2022/12/07 11:01:03;;;;;;;;;;;8.40;99.90;;;;;;5030239;28;19928;-77
2022/12/07 11:03:40;;;;;;;;;;;8.40;99.90;;;;;;5038581;28;20081;-77
2022/12/07 11:06:14;;;;;;;;;;;8.50;99.90;;;;;;5033731;28;19928;-77
2022/12/07 11:08:51;;;;;;;;;;;8.70;99.90;;;;;;5047078;28;19956;-79
2022/12/07 11:11:23;;;;;;;;;;;8.80;99.90;;;;;;5038805;28;20022;-77
2022/12/07 11:13:54;;;;;;;;;;;8.80;99.90;;;;;;5057958;28;19912;-78
2022/12/07 11:16:24;;;;;;;;;;;8.80;99.90;;;;;;5039300;28;19928;-78
2022/12/07 11:19:07;;;;;;;;;;;8.70;99.90;;;;;;5053257;28;19930;-78
2022/12/07 11:21:39;;;;;;;;;;;8.60;99.90;;;;;;5048721;28;19935;-78
2022/12/07 11:24:09;;;;;;;;;;;8.60;99.90;;;;;;5059636;28;19929;-79
2022/12/07 11:26:45;;;;;;;;;;;8.60;99.90;;;;;;5057328;28;19932;-77
2022/12/07 11:29:29;;;;;;;;;;;8.60;99.90;;;;;;5040129;28;19986;-78
2022/12/07 11:32:06;;;;;;;;;;;8.60;99.90;;;;;;5058058;28;19932;-77
2022/12/07 11:34:40;;;;;;;;;;;8.60;99.90;;;;;;5052018;28;20023;-77
2022/12/07 11:37:12;;;;;;;;;;;8.70;99.90;;;;;;5051834;28;20314;-77
2022/12/07 11:39:43;;;;;;;;;;;8.70;99.90;;;;;;5047625;28;19928;-77
2022/12/07 11:42:15;;;;;;;;;;;9.90;99.90;;;;;;5031184;28;20331;-77
2022/12/07 11:44:48;;;;;;;;;;;8.80;99.90;;;;;;5052354;28;19982;-77
2022/12/07 11:47:17;;;;;;;;;;;8.90;99.90;;;;;;5031705;28;19932;-77
2022/12/07 11:49:48;;;;;;;;;;;8.90;99.90;;;;;;5053222;28;19968;-78
2022/12/07 11:52:19;;;;;;;;;;;8.90;99.90;;;;;;5039240;28;20105;-79
2022/12/07 11:54:46;;;;;;;;;;;8.90;99.90;;;;;;5042275;28;19940;-79
2022/12/07 11:57:18;;;;;;;;;;;8.80;99.90;;;;;;5057300;28;19940;-78
2022/12/07 11:59:48;;;;;;;;;;;8.80;99.90;;;;;;5052517;28;19925;-77
2022/12/07 12:02:17;;;;;;;;;;;8.80;99.90;;;;;;5033751;28;19984;-77
2022/12/07 12:04:50;;;;;;;;;;;8.80;99.90;;;;;;5032658;28;19972;-78
2022/12/07 12:07:22;;;;;;;;;;;8.80;99.90;;;;;;5049651;28;20011;-78
2022/12/07 12:09:50;;;;;;;;;;;8.80;99.90;;;;;;5051083;28;19933;-78
2022/12/07 12:12:37;;;;;;;;;;;8.70;99.90;;;;;;5053878;28;19937;-78
2022/12/07 12:15:10;;;;;;;;;;;8.70;99.90;;;;;;5062353;28;19980;-78
2022/12/07 12:17:48;;;;;;;;;;;8.70;99.90;;;;;;5046021;28;19971;-79
2022/12/07 12:20:20;;;;;;;;;;;8.80;99.90;;;;;;5050816;28;20059;-79
2022/12/07 12:22:49;;;;;;;;;;;8.70;99.90;;;;;;5047359;28;19929;-79
2022/12/07 12:25:20;;;;;;;;;;;8.80;99.90;;;;;;5039809;28;20028;-79
2022/12/07 12:27:50;;;;;;;;;;;9.20;99.90;;;;;;5035246;28;19925;-79
2022/12/07 12:30:34;;;;;;;;;;;8.80;99.90;;;;;;5040028;28;19951;-79
2022/12/07 12:33:05;;;;;;;;;;;8.80;99.90;;;;;;5027886;28;21252;-77
2022/12/07 12:35:33;;;;;;;;;;;8.80;99.90;;;;;;5021981;28;19964;-78
2022/12/07 12:38:31;;;;;;;;;;;8.80;99.90;;;;;;5024895;28;19944;-79
2022/12/07 12:40:58;;;;;;;;;;;8.70;99.90;;;;;;4983821;28;19953;-78
2022/12/07 12:43:48;;;;;;;;;;;8.70;99.90;;;;;;5025850;28;19990;-76
2022/12/07 12:46:37;;;;;;;;;;;8.60;99.90;;;;;;5039684;28;19967;-77
2022/12/07 12:49:19;;;;;;;;;;;8.50;99.90;;;;;;5027878;28;19936;-77
2022/12/07 12:51:47;;;;;;;;;;;8.30;99.90;;;;;;5030827;28;19933;-77
2022/12/07 12:54:15;;;;;;;;;;;8.20;99.90;;;;;;5032744;28;20213;-79
2022/12/07 12:56:48;;;;;;;;;;;8.10;99.90;;;;;;5050764;28;19936;-79
2022/12/07 12:59:27;;;;;;;;;;;8.10;99.90;;;;;;5048046;28;19929;-77
2022/12/07 13:01:55;;;;;;;;;;;8.10;99.90;;;;;;5031367;28;19925;-77
2022/12/07 13:04:37;;;;;;;;;;;8.20;99.90;;;;;;5031031;28;19933;-77
2022/12/07 13:07:04;;;;;;;;;;;8.20;99.90;;;;;;5017163;28;20034;-77
2022/12/07 13:09:32;;;;;;;;;;;8.20;99.90;;;;;;5028696;28;19924;-77
2022/12/07 13:12:02;;;;;;;;;;;8.20;99.90;;;;;;5048987;28;19937;-78
2022/12/07 13:14:59;;;;;;;;;;;8.20;99.90;;;;;;5050876;28;19933;-81
2022/12/07 13:17:45;;;;;;;;;;;8.20;99.90;;;;;;5052660;28;19940;-81
2022/12/07 13:20:40;;;;;;;;;;;8.20;99.90;;;;;;5047631;28;19929;-80
2022/12/07 13:23:08;;;;;;;;;;;8.20;99.90;;;;;;5038908;28;19933;-79
2022/12/07 13:25:38;;;;;;;;;;;8.20;99.90;;;;;;5045737;28;19982;-80
2022/12/07 13:28:10;;;;;;;;;;;8.20;99.90;;;;;;5031548;28;19936;-80
2022/12/07 13:30:43;;;;;;;;;;;8.20;99.90;;;;;;5045033;28;19929;-80
2022/12/07 13:33:10;;;;;;;;;;;8.30;99.90;;;;;;5030470;28;20345;-80
2022/12/07 13:35:39;;;;;;;;;;;8.30;99.90;;;;;;5032976;28;19988;-80
2022/12/07 13:38:07;;;;;;;;;;;8.30;99.90;;;;;;5043743;28;20579;-80
2022/12/07 13:40:34;;;;;;;;;;;8.20;99.90;;;;;;5045574;28;19939;-79
2022/12/07 13:43:05;;;;;;;;;;;8.10;99.90;;;;;;5029131;28;20369;-80
2022/12/07 13:45:51;;;;;;;;;;;8.10;99.90;;;;;;5031050;28;20008;-80
2022/12/07 13:48:22;;;;;;;;;;;8.10;99.90;;;;;;5026768;28;19963;-80
2022/12/07 13:50:55;;;;;;;;;;;8.10;99.90;;;;;;5046116;28;20544;-79
2022/12/07 13:53:22;;;;;;;;;;;8.10;99.90;;;;;;5030642;28;20315;-80
2022/12/07 13:55:49;;;;;;;;;;;8.10;99.90;;;;;;5033453;28;19952;-80
2022/12/07 13:58:16;;;;;;;;;;;8.00;99.90;;;;;;5049830;28;19983;-81
2022/12/07 14:00:44;;;;;;;;;;;8.20;99.90;;;;;;5034249;28;19928;-79
2022/12/07 14:03:32;;;;;;;;;;;7.90;99.90;;;;;;5046603;28;20422;-79
2022/12/07 14:06:21;;;;;;;;;;;7.90;99.90;;;;;;5052480;28;21650;-80
2022/12/07 14:08:48;;;;;;;;;;;7.80;99.90;;;;;;5049117;28;19932;-80
2022/12/07 14:11:17;;;;;;;;;;;7.70;99.90;;;;;;5033904;28;20393;-80
2022/12/07 14:13:59;;;;;;;;;;;7.70;99.90;;;;;;5044751;28;19971;-80
2022/12/07 14:16:28;;;;;;;;;;;7.60;99.90;;;;;;5046433;28;19940;-80
2022/12/07 14:18:55;;;;;;;;;;;7.50;99.90;;;;;;5033788;28;20481;-80
2022/12/07 14:21:25;;;;;;;;;;;7.40;99.90;;;;;;5030999;28;19929;-79
2022/12/07 14:24:19;;;;;;;;;;;7.30;99.90;;;;;;5033461;28;19935;-79
2022/12/07 14:26:46;;;;;;;;;;;7.20;99.90;;;;;;4996846;28;19935;-80
2022/12/07 14:29:20;;;;;;;;;;;7.20;99.90;;;;;;5048303;28;19932;-79
2022/12/07 14:31:47;;;;;;;;;;;7.10;99.90;;;;;;5031342;28;19925;-79
2022/12/07 14:34:14;;;;;;;;;;;7.00;99.90;;;;;;5034905;28;19929;-79
2022/12/07 14:36:42;;;;;;;;;;;6.90;99.90;;;;;;5046183;28;19925;-80
2022/12/07 14:39:09;;;;;;;;;;;6.90;99.90;;;;;;5033810;28;19928;-79
2022/12/07 14:41:51;;;;;;;;;;;6.80;99.90;;;;;;5045718;28;19997;-79
2022/12/07 14:44:19;;;;;;;;;;;6.70;99.90;;;;;;5049342;28;19924;-77
2022/12/07 14:46:46;;;;;;;;;;;6.70;99.90;;;;;;5048874;28;19947;-78
2022/12/07 14:49:13;;;;;;;;;;;6.60;99.90;;;;;;5051010;28;19936;-78
2022/12/07 14:51:41;;;;;;;;;;;6.60;99.90;;;;;;5050902;28;19960;-78